createdAt,value
2023-01-29T00:01:59.183Z,4.78
2023-01-29T00:04:26.275Z,4.68
2023-01-29T00:06:53.125Z,4.55
2023-01-29T00:09:20.208Z,4.53
2023-01-29T00:11:47.369Z,5.05
2023-01-29T00:14:14.705Z,5.57
2023-01-29T00:16:41.979Z,5.30
2023-01-29T00:19:08.939Z,5.30
2023-01-29T00:21:35.978Z,5.75
2023-01-29T00:24:03.157Z,5.00
2023-01-29T00:26:30.712Z,5.22
2023-01-29T00:29:00.417Z,5.43
2023-01-29T00:31:27.476Z,6.05
2023-01-29T00:33:54.639Z,5.22
2023-01-29T00:36:22.353Z,5.97
2023-01-29T00:38:59.259Z,5.65
2023-01-29T00:41:51.030Z,6.22
2023-01-29T00:44:37.540Z,5.45
2023-01-29T00:47:26.085Z,5.78
2023-01-29T00:49:52.999Z,5.43
2023-01-29T00:52:25.740Z,6.43
2023-01-29T00:54:55.359Z,5.72
2023-01-29T00:57:24.104Z,6.75
2023-01-29T00:59:51.035Z,6.65
2023-01-29T01:02:37.446Z,6.00
2023-01-29T01:05:13.830Z,6.60
2023-01-29T01:07:41.515Z,6.50
2023-01-29T01:10:39.609Z,6.75
2023-01-29T01:13:07.503Z,6.22
2023-01-29T01:15:40.279Z,6.57
2023-01-29T01:18:07.526Z,7.43
2023-01-29T01:20:36.541Z,7.78
2023-01-29T01:23:04.145Z,7.28
2023-01-29T01:25:31.587Z,7.18
2023-01-29T01:28:03.398Z,6.55
2023-01-29T01:30:30.408Z,7.55
2023-01-29T01:32:57.698Z,7.75
2023-01-29T01:35:24.657Z,7.22
2023-01-29T01:37:51.566Z,7.68
2023-01-29T01:40:21.394Z,6.88
2023-01-29T01:42:58.238Z,7.28
2023-01-29T01:45:29.028Z,7.57
2023-01-29T01:48:16.503Z,7.78
2023-01-29T01:51:03.387Z,7.88
2023-01-29T01:56:14.586Z,8.70
2023-01-29T01:58:47.772Z,7.93
2023-01-29T02:01:14.833Z,8.00
2023-01-29T02:04:07.832Z,8.65
2023-01-29T02:06:54.454Z,8.63
2023-01-29T02:09:36.506Z,8.18
2023-01-29T02:12:11.163Z,9.00
2023-01-29T02:14:41.803Z,9.05
2023-01-29T02:17:18.233Z,8.75
2023-01-29T02:23:08.812Z,8.45
2023-01-29T02:25:54.123Z,9.27
2023-01-29T02:28:48.900Z,9.10
2023-01-29T02:31:32.287Z,9.30
2023-01-29T02:35:16.195Z,8.13
2023-01-29T02:38:03.717Z,8.60
2023-01-29T02:40:45.022Z,9.45
2023-01-29T02:43:55.763Z,9.57
2023-01-29T02:46:58.539Z,8.63
2023-01-29T02:49:35.994Z,8.63
2023-01-29T02:52:15.327Z,9.48
2023-01-29T02:55:09.397Z,9.02
2023-01-29T02:57:43.822Z,9.32
2023-01-29T03:00:18.005Z,9.27
2023-01-29T03:03:14.824Z,9.63
2023-01-29T03:06:18.092Z,8.52
2023-01-29T03:09:23.185Z,8.88
2023-01-29T03:11:56.170Z,8.95
2023-01-29T03:15:01.281Z,8.82
2023-01-29T03:17:37.562Z,8.80
2023-01-29T03:20:12.223Z,9.32
2023-01-29T03:22:41.398Z,8.70
2023-01-29T03:25:30.435Z,8.55
2023-01-29T03:28:18.985Z,8.93
2023-01-29T03:31:20.354Z,9.52
2023-01-29T03:34:07.938Z,9.68
2023-01-29T03:36:45.552Z,9.52
2023-01-29T03:39:15.381Z,9.93
2023-01-29T03:41:54.762Z,10.02
2023-01-29T03:45:08.531Z,10.18
2023-01-29T03:48:03.443Z,9.40
2023-01-29T03:50:42.071Z,9.90
2023-01-29T03:53:21.543Z,10.25
2023-01-29T03:56:25.225Z,9.73
2023-01-29T03:59:30.955Z,10.05
2023-01-29T04:02:27.973Z,10.00
2023-01-29T04:05:15.574Z,10.15
2023-01-29T04:08:04.723Z,9.73
2023-01-29T04:10:36.064Z,10.43
2023-01-29T04:13:09.203Z,10.45
2023-01-29T04:15:46.352Z,10.43
2023-01-29T04:18:13.861Z,10.60
2023-01-29T04:21:07.304Z,9.93
2023-01-29T04:23:34.804Z,10.25
2023-01-29T04:26:27.314Z,10.82
2023-01-29T04:29:32.092Z,10.00
2023-01-29T04:32:15.432Z,7.93
2023-01-29T04:35:20.279Z,10.45
2023-01-29T04:38:51.571Z,10.38
2023-01-29T04:41:28.943Z,10.43
2023-01-29T04:44:06.097Z,10.32
2023-01-29T04:47:04.666Z,10.80
2023-01-29T04:49:46.673Z,10.60
2023-01-29T04:52:43.022Z,11.25
2023-01-29T04:55:28.268Z,11.37
2023-01-29T04:58:21.647Z,10.60
2023-01-29T05:00:53.500Z,11.23
2023-01-29T05:03:24.982Z,11.82
2023-01-29T05:05:54.263Z,11.50
2023-01-29T05:08:24.650Z,11.05
2023-01-29T05:10:54.195Z,11.65
2023-01-29T05:13:23.007Z,10.38
2023-01-29T05:16:02.262Z,10.93
2023-01-29T05:18:30.993Z,11.10
2023-01-29T05:21:04.160Z,11.00
2023-01-29T05:23:31.526Z,11.00
2023-01-29T05:25:58.659Z,11.43
2023-01-29T05:28:25.705Z,12.85
2023-01-29T05:30:56.507Z,12.10
2023-01-29T05:33:31.210Z,11.73
2023-01-29T05:36:01.255Z,11.80
2023-01-29T05:38:28.551Z,11.73
2023-01-29T05:40:58.932Z,11.20
2023-01-29T05:43:26.301Z,11.77
2023-01-29T05:45:59.579Z,13.80
2023-01-29T05:48:29.227Z,12.10
2023-01-29T05:51:05.160Z,12.85
2023-01-29T05:53:33.286Z,13.57
2023-01-29T05:56:05.359Z,11.88
2023-01-29T05:58:33.380Z,13.40
2023-01-29T06:01:12.952Z,12.95
2023-01-29T06:03:40.005Z,13.95
2023-01-29T06:06:07.619Z,12.93
2023-01-29T06:08:34.557Z,12.95
2023-01-29T06:11:01.762Z,13.45
2023-01-29T06:13:28.800Z,13.35
2023-01-29T06:15:55.880Z,12.70
2023-01-29T06:18:22.813Z,12.88
2023-01-29T06:20:49.684Z,13.93
2023-01-29T06:23:16.589Z,13.45
2023-01-29T06:25:43.637Z,12.93
2023-01-29T06:28:10.857Z,13.50
2023-01-29T06:30:37.940Z,13.65
2023-01-29T06:33:04.924Z,13.93
2023-01-29T06:35:32.038Z,14.23
2023-01-29T06:37:58.874Z,13.65
2023-01-29T06:40:26.032Z,14.23
2023-01-29T06:42:52.974Z,14.27
2023-01-29T06:45:20.009Z,14.20
2023-01-29T06:47:47.046Z,14.48
2023-01-29T06:50:14.170Z,13.05
2023-01-29T06:52:41.321Z,14.38
2023-01-29T06:55:09.297Z,14.75
2023-01-29T06:57:36.289Z,13.45
2023-01-29T07:00:06.281Z,14.13
2023-01-29T07:02:33.287Z,13.95
2023-01-29T07:05:00.162Z,14.55
2023-01-29T07:07:27.251Z,14.35
2023-01-29T07:09:54.110Z,14.85
2023-01-29T07:12:21.203Z,13.20
2023-01-29T07:14:48.054Z,13.95
2023-01-29T07:17:15.280Z,14.55
2023-01-29T07:19:42.103Z,14.65
2023-01-29T07:22:09.204Z,15.60
2023-01-29T07:24:36.183Z,14.00
2023-01-29T07:27:03.147Z,14.25
2023-01-29T07:29:30.092Z,15.07
2023-01-29T07:31:57.103Z,14.18
2023-01-29T07:34:24.130Z,15.45
2023-01-29T07:36:53.929Z,14.63
2023-01-29T07:39:20.945Z,15.48
2023-01-29T07:41:47.828Z,15.90
2023-01-29T07:44:17.337Z,15.77
2023-01-29T07:46:44.186Z,15.30
2023-01-29T07:49:11.083Z,16.95
2023-01-29T07:51:38.071Z,15.80
2023-01-29T07:54:05.043Z,16.80
2023-01-29T07:56:32.126Z,15.25
2023-01-29T07:58:59.323Z,16.30
2023-01-29T08:01:26.315Z,16.15
2023-01-29T08:03:53.364Z,16.42
2023-01-29T08:06:20.262Z,16.35
2023-01-29T08:08:47.496Z,15.90
2023-01-29T08:11:15.273Z,15.00
2023-01-29T08:13:42.779Z,15.23
2023-01-29T08:16:09.686Z,15.68
2023-01-29T08:18:38.264Z,16.48
2023-01-29T08:21:05.407Z,16.67
2023-01-29T08:23:32.287Z,16.08
2023-01-29T08:25:59.307Z,16.83
2023-01-29T08:28:26.412Z,15.63
2023-01-29T08:30:53.385Z,17.48
2023-01-29T08:33:29.630Z,16.60
2023-01-29T08:36:00.698Z,17.05
2023-01-29T08:38:27.945Z,17.20
2023-01-29T08:40:54.760Z,17.35
2023-01-29T08:43:21.774Z,17.15
2023-01-29T08:45:49.214Z,15.63
2023-01-29T08:48:16.373Z,16.77
2023-01-29T08:50:43.462Z,15.27
2023-01-29T08:53:10.796Z,15.43
2023-01-29T08:55:41.419Z,15.43
2023-01-29T08:58:11.621Z,15.77
2023-01-29T09:00:39.179Z,15.13
2023-01-29T09:03:08.145Z,14.77
2023-01-29T09:05:36.982Z,15.50
2023-01-29T09:08:04.871Z,18.27
2023-01-29T09:10:32.302Z,17.38
2023-01-29T09:12:59.184Z,15.02
2023-01-29T09:15:26.106Z,15.77
2023-01-29T09:17:53.234Z,16.92
2023-01-29T09:20:20.951Z,16.55
2023-01-29T09:22:48.068Z,16.30
2023-01-29T09:25:15.530Z,16.77
2023-01-29T09:27:42.752Z,17.25
2023-01-29T09:30:10.657Z,16.67
2023-01-29T09:32:57.567Z,15.88
2023-01-29T09:37:52.521Z,15.60
2023-01-29T09:40:43.634Z,15.60
2023-01-29T09:43:17.251Z,17.17
2023-01-29T09:46:02.272Z,16.95
2023-01-29T09:48:33.605Z,17.52
2023-01-29T09:51:07.357Z,15.80
2023-01-29T09:53:47.347Z,15.52
2023-01-29T09:56:22.061Z,15.15
2023-01-29T09:58:49.229Z,16.42
2023-01-29T10:01:38.587Z,16.73
2023-01-29T10:04:38.445Z,16.38
2023-01-29T10:07:16.036Z,16.13
2023-01-29T10:10:08.211Z,15.63
2023-01-29T10:12:59.260Z,14.90
2023-01-29T10:15:38.235Z,15.60
2023-01-29T10:18:44.465Z,16.23
2023-01-29T10:21:32.902Z,16.80
2023-01-29T10:24:29.751Z,15.55
2023-01-29T10:26:57.228Z,14.60
2023-01-29T10:29:25.448Z,15.10
2023-01-29T10:32:04.728Z,15.00
2023-01-29T10:34:43.700Z,15.25
2023-01-29T10:37:25.500Z,14.82
2023-01-29T10:39:52.657Z,15.00
2023-01-29T10:42:51.524Z,14.68
2023-01-29T10:45:28.239Z,14.32
2023-01-29T10:48:40.115Z,14.98
2023-01-29T10:51:54.238Z,14.65
2023-01-29T10:54:33.516Z,13.65
2023-01-29T10:57:19.469Z,13.43
2023-01-29T11:00:27.501Z,13.73
2023-01-29T11:02:54.663Z,12.68
2023-01-29T11:05:59.178Z,12.48
2023-01-29T11:08:34.719Z,12.80
2023-01-29T11:11:13.791Z,12.00
2023-01-29T11:14:13.485Z,12.95
2023-01-29T11:16:47.307Z,12.20
2023-01-29T11:19:16.588Z,12.35
2023-01-29T11:22:01.570Z,11.73
2023-01-29T11:24:28.951Z,11.65
2023-01-29T11:26:59.279Z,11.80
2023-01-29T11:29:38.196Z,12.13
2023-01-29T11:32:15.558Z,11.98
2023-01-29T11:35:15.855Z,12.23
2023-01-29T11:37:46.066Z,10.63
2023-01-29T11:40:19.176Z,11.13
2023-01-29T11:42:47.386Z,11.23
2023-01-29T11:45:20.186Z,12.38
2023-01-29T11:47:54.855Z,10.93
2023-01-29T11:50:27.300Z,11.73
2023-01-29T11:52:54.944Z,11.75
2023-01-29T11:55:44.346Z,10.30
2023-01-29T11:58:24.975Z,11.50
2023-01-29T12:00:55.219Z,10.50
2023-01-29T12:03:36.238Z,10.20
2023-01-29T12:06:05.675Z,10.07
2023-01-29T12:08:38.201Z,9.30
2023-01-29T12:11:16.105Z,10.13
2023-01-29T12:13:45.744Z,11.23
2023-01-29T12:16:25.796Z,11.57
2023-01-29T12:18:57.167Z,11.05
2023-01-29T12:21:53.963Z,11.18
2023-01-29T12:24:52.995Z,10.55
2023-01-29T12:27:48.005Z,10.07
2023-01-29T12:30:27.516Z,9.45
2023-01-29T12:33:05.678Z,10.73
2023-01-29T12:35:38.686Z,10.30
2023-01-29T12:38:23.862Z,10.20
2023-01-29T12:41:00.510Z,9.13
2023-01-29T12:44:19.432Z,9.60
2023-01-29T12:46:53.859Z,9.82
2023-01-29T12:49:29.365Z,8.77
2023-01-29T12:52:17.102Z,8.75
2023-01-29T12:54:55.552Z,8.85
2023-01-29T12:57:56.237Z,9.77
2023-01-29T13:00:36.102Z,8.48
2023-01-29T13:03:25.164Z,9.40
2023-01-29T13:05:57.612Z,8.88
2023-01-29T13:08:31.853Z,9.52
2023-01-29T13:11:04.648Z,10.38
2023-01-29T13:13:54.145Z,10.52
2023-01-29T13:16:27.946Z,9.60
2023-01-29T13:19:06.845Z,9.30
2023-01-29T13:21:41.451Z,9.50
2023-01-29T13:24:14.219Z,8.98
2023-01-29T13:26:45.126Z,9.40
2023-01-29T13:29:28.433Z,9.68
2023-01-29T13:31:59.019Z,9.88
2023-01-29T13:34:33.137Z,10.50
2023-01-29T13:37:36.981Z,9.35
2023-01-29T13:40:07.210Z,10.02
2023-01-29T13:42:46.218Z,9.75
2023-01-29T13:45:43.784Z,10.73
2023-01-29T13:48:24.518Z,9.55
2023-01-29T13:50:53.396Z,10.00
2023-01-29T13:53:38.885Z,9.68
2023-01-29T13:56:35.414Z,10.63
2023-01-29T13:59:06.858Z,9.50
2023-01-29T14:01:49.126Z,10.98
2023-01-29T14:04:19.223Z,10.57
2023-01-29T14:06:50.203Z,11.10
2023-01-29T14:09:39.055Z,10.63
2023-01-29T14:12:26.044Z,9.90
2023-01-29T14:17:27.159Z,10.40
2023-01-29T14:20:03.164Z,10.95
2023-01-29T14:22:33.807Z,10.68
2023-01-29T14:25:05.755Z,10.45
2023-01-29T14:27:34.780Z,12.07
2023-01-29T14:30:09.675Z,11.35
2023-01-29T14:32:40.166Z,10.57
2023-01-29T14:35:24.821Z,11.38
2023-01-29T14:37:57.796Z,11.15
2023-01-29T14:40:29.535Z,10.00
2023-01-29T14:43:09.910Z,10.98
2023-01-29T14:45:41.802Z,11.93
2023-01-29T14:48:12.197Z,10.35
2023-01-29T14:50:47.339Z,11.07
2023-01-29T14:53:56.437Z,11.95
2023-01-29T14:56:32.355Z,10.75
2023-01-29T14:59:19.228Z,11.82
2023-01-29T15:04:39.321Z,11.50
2023-01-29T15:07:12.385Z,11.40
2023-01-29T15:10:23.373Z,12.55
2023-01-29T15:13:11.536Z,12.30
2023-01-29T15:15:56.617Z,12.05
2023-01-29T15:18:39.886Z,12.27
2023-01-29T15:21:19.983Z,12.07
2023-01-29T15:23:48.809Z,12.85
2023-01-29T15:26:21.885Z,11.98
2023-01-29T15:29:05.021Z,11.98
2023-01-29T15:31:32.685Z,13.05
2023-01-29T15:34:05.376Z,12.07
2023-01-29T15:36:33.013Z,13.15
2023-01-29T15:39:23.379Z,13.23
2023-01-29T15:42:05.551Z,13.32
2023-01-29T15:44:34.626Z,12.48
2023-01-29T15:47:02.305Z,12.75
2023-01-29T15:49:34.463Z,12.23
2023-01-29T15:52:07.002Z,13.95
2023-01-29T15:54:36.619Z,12.52
2023-01-29T15:57:04.050Z,13.00
2023-01-29T15:59:40.930Z,13.23
2023-01-29T16:02:35.767Z,13.00
2023-01-29T16:05:05.785Z,13.43
2023-01-29T16:07:34.267Z,13.55
2023-01-29T16:10:01.679Z,12.73
2023-01-29T16:12:28.930Z,13.25
2023-01-29T16:14:56.946Z,13.10
2023-01-29T16:17:35.650Z,11.80
2023-01-29T16:20:07.883Z,11.57
2023-01-29T16:22:37.435Z,12.77
2023-01-29T16:25:14.684Z,12.95
2023-01-29T16:27:43.834Z,13.82
2023-01-29T16:30:16.490Z,12.93
2023-01-29T16:32:43.951Z,13.43
2023-01-29T16:35:17.109Z,13.68
2023-01-29T16:37:49.456Z,14.27
2023-01-29T16:40:34.245Z,14.13
2023-01-29T16:43:19.567Z,12.50
2023-01-29T16:46:18.211Z,15.77
2023-01-29T16:48:45.473Z,13.52
2023-01-29T16:51:25.304Z,13.90
2023-01-29T16:54:04.243Z,13.25
2023-01-29T16:56:33.740Z,14.70
2023-01-29T16:59:04.106Z,14.52
2023-01-29T17:01:33.176Z,13.38
2023-01-29T17:04:11.624Z,13.52
2023-01-29T17:06:43.227Z,14.63
2023-01-29T17:09:22.560Z,14.88
2023-01-29T17:11:57.171Z,15.27
2023-01-29T17:14:26.118Z,14.27
2023-01-29T17:17:03.567Z,14.88
2023-01-29T17:19:30.558Z,14.30
2023-01-29T17:21:59.329Z,15.60
2023-01-29T17:24:26.618Z,14.93
2023-01-29T17:26:54.463Z,14.88
2023-01-29T17:29:27.531Z,15.20
2023-01-29T17:31:55.913Z,14.73
2023-01-29T17:34:24.334Z,14.32
2023-01-29T17:36:51.610Z,14.85
2023-01-29T17:39:23.549Z,13.50
2023-01-29T17:41:53.982Z,14.18
2023-01-29T17:44:21.926Z,14.13
2023-01-29T17:46:49.570Z,13.70
2023-01-29T17:49:25.286Z,14.57
2023-01-29T17:51:54.468Z,14.10
2023-01-29T17:54:22.815Z,14.73
2023-01-29T17:56:52.296Z,13.45
2023-01-29T17:59:22.406Z,13.80
2023-01-29T18:01:50.677Z,13.90
2023-01-29T18:04:18.500Z,14.50
2023-01-29T18:06:49.429Z,15.32
2023-01-29T18:09:20.408Z,13.40
2023-01-29T18:11:49.291Z,14.10
2023-01-29T18:14:17.674Z,13.90
2023-01-29T18:16:45.767Z,13.07
2023-01-29T18:19:22.181Z,13.15
2023-01-29T18:24:17.268Z,12.63
2023-01-29T18:26:44.259Z,12.45
2023-01-29T18:29:11.226Z,11.38
2023-01-29T18:31:38.331Z,13.70
2023-01-29T18:34:05.455Z,12.65
2023-01-29T18:36:32.414Z,12.60
2023-01-29T18:38:59.742Z,11.82
2023-01-29T18:41:26.706Z,13.18
2023-01-29T18:43:54.131Z,11.68
2023-01-29T18:46:24.011Z,11.70
2023-01-29T18:48:51.126Z,11.95
2023-01-29T18:51:18.048Z,12.57
2023-01-29T18:53:50.852Z,11.82
2023-01-29T18:56:18.491Z,12.52
2023-01-29T18:58:51.899Z,11.57
2023-01-29T19:01:23.723Z,12.50
2023-01-29T19:03:50.706Z,11.68
2023-01-29T19:06:17.717Z,10.82
2023-01-29T19:08:44.806Z,10.90
2023-01-29T19:11:12.431Z,13.55
2023-01-29T19:13:40.510Z,12.65
2023-01-29T19:16:12.601Z,11.55
2023-01-29T19:18:39.857Z,12.00
2023-01-29T19:21:13.499Z,12.73
2023-01-29T19:23:42.320Z,11.30
2023-01-29T19:26:10.407Z,12.23
2023-01-29T19:28:37.478Z,11.68
2023-01-29T19:31:04.847Z,11.77
2023-01-29T19:33:32.220Z,11.20
2023-01-29T19:35:59.791Z,11.40
2023-01-29T19:38:26.982Z,11.27
2023-01-29T19:40:55.239Z,12.18
2023-01-29T19:43:22.185Z,11.35
2023-01-29T19:45:50.903Z,10.65
2023-01-29T19:48:21.651Z,11.48
2023-01-29T19:51:02.597Z,10.73
2023-01-29T19:53:30.907Z,9.77
2023-01-29T19:56:04.858Z,10.32
2023-01-29T19:58:32.451Z,10.02
2023-01-29T20:01:12.550Z,10.60
2023-01-29T20:03:41.788Z,9.63
2023-01-29T20:06:09.598Z,9.63
2023-01-29T20:08:36.869Z,10.38
2023-01-29T20:11:05.562Z,10.93
2023-01-29T20:13:33.713Z,9.10
2023-01-29T20:16:03.166Z,9.73
2023-01-29T20:18:30.370Z,9.15
2023-01-29T20:20:58.436Z,8.70
2023-01-29T20:23:37.272Z,8.98
2023-01-29T20:26:13.923Z,9.40
2023-01-29T20:28:41.080Z,8.77
2023-01-29T20:31:09.669Z,8.63
2023-01-29T20:33:39.364Z,8.48
2023-01-29T20:36:10.638Z,8.68
2023-01-29T20:38:38.106Z,9.27
2023-01-29T20:41:19.224Z,8.23
2023-01-29T20:43:49.041Z,8.75
2023-01-29T20:46:16.547Z,7.97
2023-01-29T20:48:43.607Z,8.25
2023-01-29T20:51:15.417Z,8.52
2023-01-29T20:53:45.369Z,8.50
2023-01-29T20:56:16.251Z,8.02
2023-01-29T20:58:43.967Z,7.63
2023-01-29T21:01:14.269Z,8.68
2023-01-29T21:03:41.646Z,8.75
2023-01-29T21:06:10.481Z,8.52
2023-01-29T21:08:38.317Z,7.65
2023-01-29T21:11:07.369Z,8.65
2023-01-29T21:13:34.446Z,8.45
2023-01-29T21:16:02.282Z,8.10
2023-01-29T21:18:29.777Z,8.43
2023-01-29T21:20:56.885Z,7.65
2023-01-29T21:23:24.009Z,8.55
2023-01-29T21:25:50.898Z,8.50
2023-01-29T21:28:17.780Z,8.70
2023-01-29T21:30:44.705Z,8.63
2023-01-29T21:33:11.682Z,8.90
2023-01-29T21:35:38.795Z,7.75
2023-01-29T21:38:05.774Z,8.88
2023-01-29T21:40:32.881Z,8.57
2023-01-29T21:43:11.899Z,8.00
2023-01-29T21:45:40.109Z,8.10
2023-01-29T21:48:08.031Z,8.57
2023-01-29T21:50:35.005Z,9.23
2023-01-29T21:53:02.242Z,8.60
2023-01-29T21:55:29.503Z,8.77
2023-01-29T21:57:56.585Z,9.13
2023-01-29T22:00:23.448Z,8.60
2023-01-29T22:02:51.180Z,8.25
2023-01-29T22:05:20.198Z,8.90
2023-01-29T22:07:49.222Z,8.50
2023-01-29T22:10:18.736Z,8.82
2023-01-29T22:12:46.646Z,8.98
2023-01-29T22:15:14.581Z,9.02
2023-01-29T22:17:43.754Z,9.15
2023-01-29T22:20:14.703Z,9.80
2023-01-29T22:22:42.276Z,8.38
2023-01-29T22:25:10.105Z,8.65
2023-01-29T22:27:37.648Z,8.65
2023-01-29T22:30:05.756Z,9.00
2023-01-29T22:32:33.241Z,9.20
2023-01-29T22:35:00.467Z,9.02
2023-01-29T22:37:27.498Z,8.35
2023-01-29T22:39:54.464Z,8.10
2023-01-29T22:42:21.370Z,9.55
2023-01-29T22:44:48.625Z,8.80
2023-01-29T22:47:16.095Z,9.63
2023-01-29T22:49:45.426Z,9.23
2023-01-29T22:52:12.815Z,9.23
2023-01-29T22:54:42.834Z,9.80
2023-01-29T22:57:15.290Z,9.05
2023-01-29T22:59:42.440Z,8.75
2023-01-29T23:02:09.618Z,8.77
2023-01-29T23:04:37.107Z,9.80
2023-01-29T23:07:04.434Z,9.10
2023-01-29T23:09:31.284Z,8.77
2023-01-29T23:11:58.478Z,8.00
2023-01-29T23:14:25.558Z,7.53
2023-01-29T23:16:52.422Z,8.35
2023-01-29T23:19:19.803Z,8.25
2023-01-29T23:21:46.954Z,8.07
2023-01-29T23:24:14.301Z,9.00
2023-01-29T23:27:00.462Z,9.57
2023-01-29T23:29:27.569Z,8.57
2023-01-29T23:31:54.532Z,8.80
2023-01-29T23:34:21.779Z,9.02
2023-01-29T23:36:48.899Z,9.43
2023-01-29T23:39:16.514Z,8.00
2023-01-29T23:41:44.136Z,9.10
2023-01-29T23:44:11.274Z,9.60
2023-01-29T23:46:38.268Z,9.82
2023-01-29T23:49:05.364Z,9.25
2023-01-29T23:51:32.355Z,10.07
2023-01-29T23:53:59.255Z,10.18
2023-01-29T23:56:26.408Z,9.50
2023-01-29T23:58:54.996Z,8.57
